Olafur — LG8727 — position and weather

sailwx.info

Track history (hours):
 
Tides and Currents Weather Stations Pressure Air Temp Water Temp Dewpoint Dewpoint Depression Visibility Wind Speed Wind Dir Waves Ship Positions

Olafur

Last reported at 2017-Oct-17 17:00 UTC. Time now 2017-Oct-17 17:02 UTC.
Position N 69°17' E 015°17'.

Length 11 m.

Type: Fishing. MMSI: 257720800.

Date/timePositionNaut miles runAvg speedWind from/ knotsBaromVisibWave heightAir tempDewpointWater temp
2017-Oct-17 17:00N 69°17' E 015°17'2 3.7
2017-Oct-17 16:30N 69°15' E 015°20'1 1.3
2017-Oct-17 15:59N 69°15' E 015°18'2 4.1
2017-Oct-17 15:30N 69°16' E 015°14'3 5.0
2017-Oct-17 15:00N 69°14' E 015°17'3 6.0
2017-Oct-17 14:29N 69°11' E 015°14'4 8.8
2017-Oct-17 14:00N 69°08' E 015°07'5 9.4
2017-Oct-17 13:31N 69°04' E 015°01'5 8.6
2017-Oct-17 12:59N 68°59' E 014°59'4 8.3
2017-Oct-17 12:30N 68°55' E 015°02'1 1.8
2017-Oct-17 11:56N 68°55' E 015°04'0 0.0
2017-Oct-17 11:29N 68°55' E 015°04'0 0.0
2017-Oct-17 10:59N 68°55' E 015°04'0 0.0
2017-Oct-17 10:29N 68°55' E 015°04'0 0.0
2017-Oct-17 09:59N 68°55' E 015°04'0 0.0
2017-Oct-17 09:29N 68°55' E 015°04'0 0.0
2017-Oct-17 08:59N 68°55' E 015°04'0 0.0
2017-Oct-17 08:29N 68°55' E 015°04'0 0.0
2017-Oct-17 07:59N 68°55' E 015°04'0 0.0
2017-Oct-17 07:29N 68°55' E 015°04'0 0.0
2017-Oct-17 06:59N 68°55' E 015°04'0 0.0
2017-Oct-17 06:29N 68°55' E 015°04'0 0.0
2017-Oct-17 05:59N 68°55' E 015°04'0 0.0
2017-Oct-17 05:29N 68°55' E 015°04'0 0.0
2017-Oct-17 04:56N 68°55' E 015°04'0 0.0
2017-Oct-17 04:29N 68°55' E 015°04'0 0.0
2017-Oct-17 03:59N 68°55' E 015°04'0 0.0
2017-Oct-17 03:29N 68°55' E 015°04'0 0.0
2017-Oct-17 02:59N 68°55' E 015°04'0 0.0
2017-Oct-17 02:29N 68°55' E 015°04'0 0.0
2017-Oct-17 01:59N 68°55' E 015°04'0 0.0
2017-Oct-17 01:29N 68°55' E 015°04'0 0.0
2017-Oct-17 00:59N 68°55' E 015°04'0 0.0
2017-Oct-17 00:29N 68°55' E 015°04'0 0.0
2017-Oct-16 23:59N 68°55' E 015°04'0 0.0
2017-Oct-16 23:29N 68°55' E 015°04'0 0.0
2017-Oct-16 22:59N 68°55' E 015°04'0 0.0
2017-Oct-16 22:29N 68°55' E 015°04'0 0.0
2017-Oct-16 21:59N 68°55' E 015°04'0 0.0
2017-Oct-16 21:29N 68°55' E 015°04'0 0.0
2017-Oct-16 20:59N 68°55' E 015°04'0 0.0
2017-Oct-16 20:29N 68°55' E 015°04'0 0.0
2017-Oct-16 19:59N 68°55' E 015°04'0 0.0
2017-Oct-16 19:26N 68°55' E 015°04'0 0.0
2017-Oct-16 18:59N 68°55' E 015°04'0 0.0
2017-Oct-16 18:29N 68°55' E 015°04'0 0.0
2017-Oct-16 17:59N 68°55' E 015°04'0 0.0
2017-Oct-16 17:29N 68°55' E 015°04'0 0.0
2017-Oct-16 16:50N 68°55' E 015°04'0 0.0
2017-Oct-16 16:23N 68°55' E 015°04'0 0.0
2017-Oct-16 15:59N 68°55' E 015°04'0 0.0
2017-Oct-16 15:29N 68°55' E 015°04'0 0.0
2017-Oct-16 14:59N 68°55' E 015°04'0 0.0
2017-Oct-16 13:56N 68°55' E 015°04'0 0.0
2017-Oct-16 13:29N 68°55' E 015°04'0 0.0
2017-Oct-16 12:59N 68°55' E 015°04'0 0.0
2017-Oct-16 12:29N 68°55' E 015°04'0 0.0
2017-Oct-16 11:56N 68°55' E 015°04'0 0.0
2017-Oct-16 11:29N 68°55' E 015°04'0 0.0
2017-Oct-16 10:59N 68°55' E 015°04'0 0.0
2017-Oct-16 10:29N 68°55' E 015°04'0 0.0
2017-Oct-16 09:59N 68°55' E 015°04'0 0.0
2017-Oct-16 09:29N 68°55' E 015°04'0 0.0
2017-Oct-16 08:59N 68°55' E 015°04'0 0.0
2017-Oct-16 08:29N 68°55' E 015°04'0 0.0
2017-Oct-16 07:59N 68°55' E 015°04'0 0.0
2017-Oct-16 07:26N 68°55' E 015°04'0 0.0
2017-Oct-16 06:59N 68°55' E 015°04'0 0.0
2017-Oct-16 06:29N 68°55' E 015°04'0 0.0
2017-Oct-16 05:59N 68°55' E 015°04'0 0.0
2017-Oct-16 05:26N 68°55' E 015°04'0 0.0
2017-Oct-16 04:56N 68°55' E 015°04'0 0.0
2017-Oct-16 04:29N 68°55' E 015°04'0 0.0
2017-Oct-16 03:59N 68°55' E 015°04'0 0.0
2017-Oct-16 03:29N 68°55' E 015°04'0 0.0
2017-Oct-16 02:59N 68°55' E 015°04'0 0.0
2017-Oct-16 02:26N 68°55' E 015°04'0 0.0
2017-Oct-16 01:59N 68°55' E 015°04'0 0.0
2017-Oct-16 01:29N 68°55' E 015°04'0 0.0
2017-Oct-16 00:59N 68°55' E 015°04'0 0.0
2017-Oct-16 00:29N 68°55' E 015°04'0 0.0
2017-Oct-15 23:56N 68°55' E 015°04'0 0.0
2017-Oct-15 23:29N 68°55' E 015°04'0 0.0
2017-Oct-15 22:59N 68°55' E 015°04'0 0.0
2017-Oct-15 22:29N 68°55' E 015°04'0 0.0
2017-Oct-15 21:59N 68°55' E 015°04'0 0.0
2017-Oct-15 21:29N 68°55' E 015°04'0 0.0
2017-Oct-15 20:59N 68°55' E 015°04'0 0.0
2017-Oct-15 20:26N 68°55' E 015°04'0 0.0
2017-Oct-15 19:56N 68°55' E 015°04'0 0.0
2017-Oct-15 19:29N 68°55' E 015°04'0 0.0
2017-Oct-15 18:59N 68°55' E 015°04'0 0.0
2017-Oct-15 18:29N 68°55' E 015°04'0 0.0
2017-Oct-15 17:59N 68°55' E 015°04'0 0.0
2017-Oct-15 17:29N 68°55' E 015°04'0 0.0
2017-Oct-15 16:59N 68°55' E 015°04'0 0.0
2017-Oct-15 16:26N 68°55' E 015°04'0 0.0
2017-Oct-15 15:59N 68°55' E 015°04'0 0.0
2017-Oct-15 15:29N 68°55' E 015°04'0 0.0
2017-Oct-15 14:56N 68°55' E 015°04'0 0.0
2017-Oct-15 13:59N 68°55' E 015°04'0 0.0
2017-Oct-15 13:29N 68°55' E 015°04'0 0.0
2017-Oct-15 12:53N 68°55' E 015°04'0 0.0
2017-Oct-15 12:29N 68°55' E 015°04'0 0.0
2017-Oct-15 11:59N 68°55' E 015°04'0 0.0
2017-Oct-15 11:29N 68°55' E 015°04'0 0.0
2017-Oct-15 10:59N 68°55' E 015°04'0 0.0
2017-Oct-15 10:29N 68°55' E 015°04'0 0.0
2017-Oct-15 09:59N 68°55' E 015°04'0 0.0
2017-Oct-15 09:29N 68°55' E 015°04'0 0.0
2017-Oct-15 08:56N 68°55' E 015°04'0 0.0
2017-Oct-15 08:29N 68°55' E 015°04'0 0.0
2017-Oct-15 07:59N 68°55' E 015°04'0 0.0
2017-Oct-15 07:29N 68°55' E 015°04'0 0.0
2017-Oct-15 06:59N 68°55' E 015°04'0 0.0
2017-Oct-15 06:29N 68°55' E 015°04'0 0.0
2017-Oct-15 05:59N 68°55' E 015°04'0 0.0
2017-Oct-15 05:29N 68°55' E 015°04'0 0.0
2017-Oct-15 04:59N 68°55' E 015°04'0 0.0
2017-Oct-15 04:29N 68°55' E 015°04'0 0.0
2017-Oct-15 03:59N 68°55' E 015°04'0 0.0
2017-Oct-15 03:29N 68°55' E 015°04'0 0.0
2017-Oct-15 02:59N 68°55' E 015°04'0 0.0
2017-Oct-15 02:26N 68°55' E 015°04'0 0.0
2017-Oct-15 01:59N 68°55' E 015°04'0 0.0
2017-Oct-15 01:29N 68°55' E 015°04'0 0.0
2017-Oct-15 00:59N 68°55' E 015°04'0 0.0
2017-Oct-15 00:29N 68°55' E 015°04'0 0.0
2017-Oct-14 23:59N 68°55' E 015°04'0 0.0
2017-Oct-14 23:29N 68°55' E 015°04'0 0.0
2017-Oct-14 22:59N 68°55' E 015°04'0 0.0
2017-Oct-14 22:29N 68°55' E 015°04'0 0.0
2017-Oct-14 21:56N 68°55' E 015°04'0 0.0
2017-Oct-14 21:29N 68°55' E 015°04'0 0.0
2017-Oct-14 20:59N 68°55' E 015°04'0 0.0
2017-Oct-14 20:29N 68°55' E 015°04'0 0.0
2017-Oct-14 19:59N 68°55' E 015°04'0 0.0
2017-Oct-14 19:29N 68°55' E 015°04'0 0.0
2017-Oct-14 18:59N 68°55' E 015°04'0 0.0
2017-Oct-14 18:29N 68°55' E 015°04'0 0.0
2017-Oct-14 17:59N 68°55' E 015°04'0 0.0
2017-Oct-14 17:29N 68°55' E 015°04'0 0.0
2017-Oct-14 16:59N 68°55' E 015°04'0 0.0
2017-Oct-14 16:29N 68°55' E 015°04'0 0.0
2017-Oct-14 15:59N 68°55' E 015°04'0 0.0
2017-Oct-14 15:29N 68°55' E 015°04'0 0.0
2017-Oct-14 14:59N 68°55' E 015°04'0 0.0
2017-Oct-14 14:29N 68°55' E 015°04'0 0.0
2017-Oct-14 13:59N 68°55' E 015°04'0 0.0
2017-Oct-14 13:29N 68°55' E 015°04'0 0.0
2017-Oct-14 12:59N 68°55' E 015°04'0 0.0
2017-Oct-14 12:29N 68°55' E 015°04'0 0.0
2017-Oct-14 11:59N 68°55' E 015°04'0 0.0
2017-Oct-14 11:29N 68°55' E 015°04'0 0.0
2017-Oct-14 10:59N 68°55' E 015°04'0 0.0
2017-Oct-14 10:29N 68°55' E 015°04'0 0.0
2017-Oct-14 09:59N 68°55' E 015°04'0 0.0
2017-Oct-14 09:29N 68°55' E 015°04'0 0.0
2017-Oct-14 08:59N 68°55' E 015°04'0 0.0
2017-Oct-14 08:29N 68°55' E 015°04'0 0.0
2017-Oct-14 07:59N 68°55' E 015°04'0 0.0
2017-Oct-14 07:29N 68°55' E 015°04'0 0.0
2017-Oct-14 06:59N 68°55' E 015°04'0 0.0
2017-Oct-14 06:29N 68°55' E 015°04'0 0.0
2017-Oct-14 05:59N 68°55' E 015°04'0 0.0
2017-Oct-14 05:26N 68°55' E 015°04'0 0.0
2017-Oct-14 04:59N 68°55' E 015°04'0 0.0
2017-Oct-14 04:29N 68°55' E 015°04'0 0.0
2017-Oct-14 03:53N 68°55' E 015°04'0 0.0
2017-Oct-14 03:29N 68°55' E 015°04'0 0.0
2017-Oct-14 02:59N 68°55' E 015°04'0 0.0
2017-Oct-14 02:26N 68°55' E 015°04'0 0.0
2017-Oct-14 01:56N 68°55' E 015°04'0 0.0
2017-Oct-14 01:26N 68°55' E 015°04'0 0.0
2017-Oct-14 00:59N 68°55' E 015°04'0 0.0
2017-Oct-14 00:26N 68°55' E 015°04'0 0.0
2017-Oct-13 23:56N 68°55' E 015°04'0 0.0
2017-Oct-13 23:29N 68°55' E 015°04'0 0.0
2017-Oct-13 22:59N 68°55' E 015°04'0 0.0
2017-Oct-13 22:29N 68°55' E 015°04'0 0.0
2017-Oct-13 21:59N 68°55' E 015°04'0 0.0
2017-Oct-13 21:29N 68°55' E 015°04'0 0.0
2017-Oct-13 20:59N 68°55' E 015°04'0 0.0
2017-Oct-13 20:29N 68°55' E 015°04'0 0.0
2017-Oct-13 19:59N 68°55' E 015°04'0 0.0
2017-Oct-13 19:29N 68°55' E 015°04'0 0.0
2017-Oct-13 18:59N 68°55' E 015°04'0 0.0
2017-Oct-13 18:26N 68°55' E 015°04'0 0.0
2017-Oct-13 17:59N 68°55' E 015°04'0 0.0
2017-Oct-13 17:29N 68°55' E 015°04'0 0.0
2017-Oct-13 16:58N 68°55' E 015°04'0 0.3
2017-Oct-13 16:23N 68°55' E 015°04'3 6.8
2017-Oct-13 16:00N 68°57' E 014°59'4 8.6
2017-Oct-13 15:30N 69°01' E 014°59'4 8.2
2017-Oct-13 15:00N 69°05' E 015°02'4 7.9
2017-Oct-13 14:30N 69°08' E 015°07'1 1.1
2017-Oct-13 14:00N 69°09' E 015°09'1 1.4
2017-Oct-13 13:29N 69°08' E 015°09'1 1.2
2017-Oct-13 13:00N 69°08' E 015°11'0 0.9
2017-Oct-13 12:30N 69°08' E 015°12'1 1.2
2017-Oct-13 11:59N 69°07' E 015°14'1 1.2
2017-Oct-13 11:30N 69°07' E 015°15'0 0.8
2017-Oct-13 11:00N 69°07' E 015°14'1 1.4
2017-Oct-13 10:30N 69°07' E 015°12'1 1.4
2017-Oct-13 10:00N 69°07' E 015°10'1 1.2
2017-Oct-13 09:30N 69°08' E 015°09'1 1.4
2017-Oct-13 09:00N 69°08' E 015°08'1 1.0
2017-Oct-13 08:30N 69°09' E 015°07'1 1.3
2017-Oct-13 08:00N 69°08' E 015°07'13 0.9
2017-Oct-12 16:22N 68°55' E 015°04'0 0.0
2017-Oct-12 15:58N 68°55' E 015°04'0 0.0
2017-Oct-12 15:28N 68°55' E 015°04'0 0.0
2017-Oct-12 14:58N 68°55' E 015°04'0 0.0
2017-Oct-12 14:28N 68°55' E 015°04'0 0.0
2017-Oct-12 13:58N 68°55' E 015°04'0 0.0
2017-Oct-12 13:28N 68°55' E 015°04'0 0.0
2017-Oct-12 12:58N 68°55' E 015°04'0 0.0
2017-Oct-12 12:28N 68°55' E 015°04'0 0.0
2017-Oct-12 11:55N 68°55' E 015°04'0 0.0
2017-Oct-12 11:28N 68°55' E 015°04'0 0.0
2017-Oct-12 10:58N 68°55' E 015°04'0 0.0
2017-Oct-12 10:30N 68°55' E 015°04'0 0.3
2017-Oct-12 09:55N 68°55' E 015°04'0 0.3
2017-Oct-12 09:29N 68°55' E 015°04'4 7.7
2017-Oct-12 08:59N 68°58' E 014°59'4 8.0
2017-Oct-12 08:30N 69°02' E 014°60'4 7.1
2017-Oct-12 08:00N 69°05' E 015°03'3 7.0
2017-Oct-12 07:30N 69°08' E 015°07'4 7.0
2017-Oct-12 07:01N 69°12' E 015°11'3 7.0
2017-Oct-12 06:30N 69°15' E 015°15'3 6.5
2017-Oct-12 06:00N 69°18' E 015°17'0 0.9
2017-Oct-12 05:29N 69°19' E 015°17'1 1.2
2017-Oct-12 05:00N 69°19' E 015°16'0 0.8
2017-Oct-12 04:29N 69°19' E 015°15'1 1.1
2017-Oct-12 04:00N 69°18' E 015°16'1 1.0
2017-Oct-12 03:30N 69°18' E 015°14'1 1.2
2017-Oct-12 03:00N 69°19' E 015°13'1 1.0
2017-Oct-12 02:29N 69°18' E 015°13'1 1.2
2017-Oct-12 02:00N 69°17' E 015°13'1 1.1
2017-Oct-12 01:30N 69°18' E 015°11'0 0.8
2017-Oct-12 00:59N 69°18' E 015°11'1 1.1
2017-Oct-12 00:30N 69°17' E 015°11'1 1.0
2017-Oct-12 00:00N 69°17' E 015°11'0 0.9
2017-Oct-11 23:30N 69°17' E 015°10'1 1.2
2017-Oct-11 23:00N 69°18' E 015°08'1 1.1
2017-Oct-11 22:30N 69°17' E 015°08'1 1.3
2017-Oct-11 21:59N 69°16' E 015°08'1 2.3
2017-Oct-11 21:30N 69°15' E 015°08'1 2.5
2017-Oct-11 21:00N 69°15' E 015°12'1 1.1
2017-Oct-11 20:30N 69°16' E 015°13'1 1.0
2017-Oct-11 20:00N 69°16' E 015°13'0 0.9
2017-Oct-11 19:30N 69°17' E 015°14'0 0.9
2017-Oct-11 19:00N 69°17' E 015°14'0 0.9
2017-Oct-11 18:29N 69°17' E 015°15'1 1.7
2017-Oct-11 18:00N 69°18' E 015°16'0 1.0
2017-Oct-11 17:30N 69°18' E 015°15'1 2.1
2017-Oct-11 17:00N 69°17' E 015°13'10 0.6
2017-Oct-11 00:00N 69°08' E 015°07'3 6.4
2017-Oct-10 23:30N 69°05' E 015°04'4 8.7
2017-Oct-10 22:59N 69°01' E 014°59'5 8.9
2017-Oct-10 22:29N 68°56' E 014°60'2 5.2
2017-Oct-10 22:00N 68°55' E 015°04'0 0.0
2017-Oct-10 21:30N 68°55' E 015°04'0 0.0
2017-Oct-10 21:00N 68°55' E 015°04'0 0.0
2017-Oct-10 20:30N 68°55' E 015°04'0 0.0
2017-Oct-10 20:00N 68°55' E 015°04'0 0.0
2017-Oct-10 19:30N 68°55' E 015°04'0 0.0
2017-Oct-10 19:00N 68°55' E 015°04'0 0.0
2017-Oct-10 18:30N 68°55' E 015°04'0 0.0
2017-Oct-10 18:00N 68°55' E 015°04'0 0.0
2017-Oct-10 17:30N 68°55' E 015°04'0 0.0
2017-Oct-10 17:00N 68°55' E 015°04'0 0.0
2017-Oct-10 16:30N 68°55' E 015°04'0 0.0
2017-Oct-10 16:00N 68°55' E 015°04'0 0.0
2017-Oct-10 15:30N 68°55' E 015°04'0 0.0
2017-Oct-10 15:00N 68°55' E 015°04'0 0.0
2017-Oct-10 14:00N 68°55' E 015°04'0 0.0
2017-Oct-10 13:30N 68°55' E 015°04'0 0.0
2017-Oct-10 12:57N 68°55' E 015°04'0 0.0
2017-Oct-10 12:30N 68°55' E 015°04'0 0.0
2017-Oct-10 12:00N 68°55' E 015°04'0 0.0
2017-Oct-10 11:30N 68°55' E 015°04'0 0.0
2017-Oct-10 11:00N 68°55' E 015°04'0 0.2
2017-Oct-10 10:21N 68°55' E 015°04'3 7.0
2017-Oct-10 09:57N 68°57' E 014°59'4 8.7
2017-Oct-10 09:29N 69°01' E 014°59'4 9.0
2017-Oct-10 09:00N 69°05' E 015°04'4 8.6
2017-Oct-10 08:30N 69°09' E 015°10'4 8.1
2017-Oct-10 08:00N 69°12' E 015°15'4 7.8
2017-Oct-10 07:30N 69°16' E 015°20'1 1.3
2017-Oct-10 07:00N 69°16' E 015°22'1 1.6
2017-Oct-10 06:30N 69°15' E 015°23'1 1.1
2017-Oct-10 06:01N 69°16' E 015°22'1 2.6
2017-Oct-10 05:30N 69°17' E 015°19'1 1.2
2017-Oct-10 05:00N 69°17' E 015°18'1 1.4
2017-Oct-10 04:30N 69°17' E 015°17'1 1.1
2017-Oct-10 04:00N 69°18' E 015°15'0 1.0
2017-Oct-10 03:30N 69°18' E 015°14'0 0.8
2017-Oct-10 03:00N 69°18' E 015°13'0 0.9
2017-Oct-10 02:29N 69°18' E 015°12'1 1.1
2017-Oct-10 02:00N 69°18' E 015°12'1 1.3
2017-Oct-10 01:30N 69°17' E 015°13'1 1.3
2017-Oct-10 01:00N 69°16' E 015°13'1 1.3
2017-Oct-10 00:29N 69°16' E 015°14'1 1.3
2017-Oct-10 00:00N 69°15' E 015°15'1 1.3
2017-Oct-09 23:30N 69°15' E 015°16'1 1.3
2017-Oct-09 23:00N 69°14' E 015°16'1 1.2
2017-Oct-09 22:29N 69°13' E 015°17'1 2.4
2017-Oct-09 21:58N 69°13' E 015°20'0 0.6
2017-Oct-09 21:28N 69°13' E 015°21'0 0.6
2017-Oct-09 20:58N 69°13' E 015°21'0 0.6
2017-Oct-09 20:28N 69°14' E 015°21'0 0.6
2017-Oct-09 19:58N 69°14' E 015°22'0 0.6
2017-Oct-09 19:28N 69°14' E 015°22'0 0.6
2017-Oct-09 18:58N 69°14' E 015°23'0 0.8
2017-Oct-09 18:29N 69°15' E 015°24'2 4.2
2017-Oct-09 18:00N 69°16' E 015°20'3 5.7
2017-Oct-09 17:30N 69°18' E 015°13'2 3.7
2017-Oct-09 17:00N 69°16' E 015°13'3 5.3
2017-Oct-09 16:30N 69°14' E 015°16'1 2.3
2017-Oct-09 16:00N 69°14' E 015°19'0 0.5
2017-Oct-09 15:30N 69°13' E 015°19'0 0.6
2017-Oct-09 15:00N 69°13' E 015°18'2 3.5
2017-Oct-09 14:30N 69°15' E 015°20'1 1.2
2017-Oct-09 14:00N 69°16' E 015°20'1 1.4
2017-Oct-09 13:29N 69°16' E 015°19'1 1.3
2017-Oct-09 13:00N 69°17' E 015°18'1 1.1
2017-Oct-09 12:30N 69°17' E 015°17'1 1.4
2017-Oct-09 12:00N 69°16' E 015°17'1 1.3
2017-Oct-09 11:30N 69°16' E 015°18'1 1.4
2017-Oct-09 11:00N 69°15' E 015°19'0 0.9
2017-Oct-09 10:30N 69°15' E 015°18'1 1.4
2017-Oct-09 10:00N 69°15' E 015°17'1 1.4
2017-Oct-09 09:30N 69°16' E 015°16'1 1.3
2017-Oct-09 09:00N 69°17' E 015°15'1 1.0
2017-Oct-09 08:29N 69°16' E 015°14'1 1.4
2017-Oct-09 08:00N 69°15' E 015°15'1 1.4
2017-Oct-09 07:30N 69°15' E 015°16'1 1.4
2017-Oct-09 07:00N 69°14' E 015°17'1 1.3
2017-Oct-09 06:30N 69°14' E 015°17'1 2.4
2017-Oct-09 05:58N 69°13' E 015°20'0 0.8
2017-Oct-09 05:30N 69°13' E 015°20'1 1.0
2017-Oct-09 04:58N 69°13' E 015°19'0 0.9
2017-Oct-09 04:28N 69°14' E 015°19'0 0.9
2017-Oct-09 04:00N 69°14' E 015°20'0 0.9
2017-Oct-09 03:30N 69°15' E 015°20'0 0.8
2017-Oct-09 03:00N 69°15' E 015°20'2 3.6
2017-Oct-09 02:30N 69°16' E 015°17'1 2.9
2017-Oct-09 02:00N 69°15' E 015°17'1 2.4
2017-Oct-09 01:29N 69°16' E 015°14'3 5.4
2017-Oct-09 00:59N 69°13' E 015°17'4 8.4
2017-Oct-09 00:30N 69°10' E 015°12'5 9.1
2017-Oct-09 00:00N 69°06' E 015°05'4 8.7
2017-Oct-08 23:30N 69°02' E 014°60'4 8.4
2017-Oct-08 22:59N 68°58' E 014°59'4 7.3
2017-Oct-08 22:29N 68°55' E 015°04'0 0.0
2017-Oct-08 21:59N 68°55' E 015°04'0 0.0
2017-Oct-08 21:29N 68°55' E 015°04'0 0.0
2017-Oct-08 20:59N 68°55' E 015°04'0 0.0
2017-Oct-08 20:29N 68°55' E 015°04'0 0.0
2017-Oct-08 19:59N 68°55' E 015°04'0 0.0
2017-Oct-08 19:29N 68°55' E 015°04'0 0.0
2017-Oct-08 18:59N 68°55' E 015°04'0 0.3
2017-Oct-08 18:28N 68°55' E 015°04'0 0.0
2017-Oct-08 17:55N 68°55' E 015°04'3 6.9
2017-Oct-08 17:30N 68°57' E 014°59'4 8.9
2017-Oct-08 17:00N 69°01' E 014°57'4 8.6
2017-Oct-08 16:30N 69°06' E 014°55'3 6.0
2017-Oct-08 16:00N 69°09' E 014°55'1 1.3
2017-Oct-08 15:30N 69°09' E 014°53'1 1.3
2017-Oct-08 15:00N 69°09' E 014°51'0 0.8
2017-Oct-08 14:30N 69°10' E 014°51'1 1.4
2017-Oct-08 14:00N 69°09' E 014°53'0 1.0
2017-Oct-08 13:30N 69°10' E 014°54'1 1.4
2017-Oct-08 13:00N 69°10' E 014°52'1 1.4
2017-Oct-08 12:30N 69°10' E 014°50'1 1.3
2017-Oct-08 12:00N 69°10' E 014°48'1 1.3
2017-Oct-08 11:30N 69°11' E 014°47'1 1.3
2017-Oct-08 11:00N 69°11' E 014°46'1 1.3
2017-Oct-08 10:30N 69°12' E 014°45'3 5.1
2017-Oct-08 10:00N 69°14' E 014°45'3 5.4
2017-Oct-08 09:30N 69°17' E 014°45'0 0.7
2017-Oct-08 08:59N 69°17' E 014°44'0 0.9
2017-Oct-08 08:30N 69°17' E 014°42'1 1.1
2017-Oct-08 08:00N 69°16' E 014°41'1 1.3
2017-Oct-08 07:30N 69°16' E 014°39'0 0.8
2017-Oct-08 07:01N 69°16' E 014°38'0 0.3
2017-Oct-08 06:30N 69°16' E 014°39'0 0.5
2017-Oct-08 06:00N 69°16' E 014°39'1 1.0
2017-Oct-08 05:30N 69°16' E 014°37'0 0.4
2017-Oct-08 05:00N 69°16' E 014°38'1 1.4
2017-Oct-08 04:30N 69°16' E 014°36'0 0.8
2017-Oct-08 04:00N 69°16' E 014°37'0 0.8
2017-Oct-08 03:30N 69°15' E 014°38'1 1.1
2017-Oct-08 02:59N 69°16' E 014°39'1 1.1
2017-Oct-08 02:30N 69°16' E 014°40'1 1.3
2017-Oct-08 01:59N 69°17' E 014°41'1 1.1
2017-Oct-08 01:30N 69°17' E 014°43'0 1.0
2017-Oct-08 01:00N 69°17' E 014°43'3 6.2
2017-Oct-08 00:29N 69°16' E 014°36'3 6.5
2017-Oct-08 00:00N 69°13' E 014°41'3 6.1
2017-Oct-07 23:29N 69°11' E 014°47'2 5.0
2017-Oct-07 23:00N 69°10' E 014°53'1 1.6
2017-Oct-07 22:30N 69°09' E 014°51'3 5.2
2017-Oct-07 22:01N 69°07' E 014°54'4 8.4
2017-Oct-07 21:30N 69°03' E 014°56'4 8.4
2017-Oct-07 21:00N 68°58' E 014°58'4 8.0
2017-Oct-07 20:29N 68°55' E 015°04'0 0.2
2017-Oct-07 20:00N 68°55' E 015°04'0 0.4
2017-Oct-07 19:29N 68°55' E 015°04'0 0.0
2017-Oct-07 18:59N 68°55' E 015°04'0 0.0
2017-Oct-07 18:29N 68°55' E 015°04'0 0.0
2017-Oct-07 17:59N 68°55' E 015°04'0 0.0
2017-Oct-07 17:29N 68°55' E 015°04'0 0.0
2017-Oct-07 16:59N 68°55' E 015°04'  
Track history (hours):
 
Tides and Currents Weather Stations Pressure Air Temp Water Temp Dewpoint Dewpoint Depression Visibility Wind Speed Wind Dir Waves Ship Positions

Olafur

Last reported at 2017-Oct-17 17:00 UTC. Time now 2017-Oct-17 17:02 UTC.
Position N 69°17' E 015°17'.

Length 11 m.

Type: Fishing. MMSI: 257720800.

Date/timePositionNaut miles runAvg speedWind from/ knotsBaromVisibWave heightAir tempDewpointWater temp
2017-Oct-17 17:00N 69°17' E 015°17'2 3.7
2017-Oct-17 16:30N 69°15' E 015°20'1 1.3
2017-Oct-17 15:59N 69°15' E 015°18'2 4.1
2017-Oct-17 15:30N 69°16' E 015°14'3 5.0
2017-Oct-17 15:00N 69°14' E 015°17'3 6.0
2017-Oct-17 14:29N 69°11' E 015°14'4 8.8
2017-Oct-17 14:00N 69°08' E 015°07'5 9.4
2017-Oct-17 13:31N 69°04' E 015°01'5 8.6
2017-Oct-17 12:59N 68°59' E 014°59'4 8.3
2017-Oct-17 12:30N 68°55' E 015°02'1 1.8
2017-Oct-17 11:56N 68°55' E 015°04'0 0.0
2017-Oct-17 11:29N 68°55' E 015°04'0 0.0
2017-Oct-17 10:59N 68°55' E 015°04'0 0.0
2017-Oct-17 10:29N 68°55' E 015°04'0 0.0
2017-Oct-17 09:59N 68°55' E 015°04'0 0.0
2017-Oct-17 09:29N 68°55' E 015°04'0 0.0
2017-Oct-17 08:59N 68°55' E 015°04'0 0.0
2017-Oct-17 08:29N 68°55' E 015°04'0 0.0
2017-Oct-17 07:59N 68°55' E 015°04'0 0.0
2017-Oct-17 07:29N 68°55' E 015°04'0 0.0
2017-Oct-17 06:59N 68°55' E 015°04'0 0.0
2017-Oct-17 06:29N 68°55' E 015°04'0 0.0
2017-Oct-17 05:59N 68°55' E 015°04'0 0.0
2017-Oct-17 05:29N 68°55' E 015°04'0 0.0
2017-Oct-17 04:56N 68°55' E 015°04'0 0.0
2017-Oct-17 04:29N 68°55' E 015°04'0 0.0
2017-Oct-17 03:59N 68°55' E 015°04'0 0.0
2017-Oct-17 03:29N 68°55' E 015°04'0 0.0
2017-Oct-17 02:59N 68°55' E 015°04'0 0.0
2017-Oct-17 02:29N 68°55' E 015°04'0 0.0
2017-Oct-17 01:59N 68°55' E 015°04'0 0.0
2017-Oct-17 01:29N 68°55' E 015°04'0 0.0
2017-Oct-17 00:59N 68°55' E 015°04'0 0.0
2017-Oct-17 00:29N 68°55' E 015°04'0 0.0
2017-Oct-16 23:59N 68°55' E 015°04'0 0.0
2017-Oct-16 23:29N 68°55' E 015°04'0 0.0
2017-Oct-16 22:59N 68°55' E 015°04'0 0.0
2017-Oct-16 22:29N 68°55' E 015°04'0 0.0
2017-Oct-16 21:59N 68°55' E 015°04'0 0.0
2017-Oct-16 21:29N 68°55' E 015°04'0 0.0
2017-Oct-16 20:59N 68°55' E 015°04'0 0.0
2017-Oct-16 20:29N 68°55' E 015°04'0 0.0
2017-Oct-16 19:59N 68°55' E 015°04'0 0.0
2017-Oct-16 19:26N 68°55' E 015°04'0 0.0
2017-Oct-16 18:59N 68°55' E 015°04'0 0.0
2017-Oct-16 18:29N 68°55' E 015°04'0 0.0
2017-Oct-16 17:59N 68°55' E 015°04'0 0.0
2017-Oct-16 17:29N 68°55' E 015°04'0 0.0
2017-Oct-16 16:50N 68°55' E 015°04'0 0.0
2017-Oct-16 16:23N 68°55' E 015°04'0 0.0
2017-Oct-16 15:59N 68°55' E 015°04'0 0.0
2017-Oct-16 15:29N 68°55' E 015°04'0 0.0
2017-Oct-16 14:59N 68°55' E 015°04'0 0.0
2017-Oct-16 13:56N 68°55' E 015°04'0 0.0
2017-Oct-16 13:29N 68°55' E 015°04'0 0.0
2017-Oct-16 12:59N 68°55' E 015°04'0 0.0
2017-Oct-16 12:29N 68°55' E 015°04'0 0.0
2017-Oct-16 11:56N 68°55' E 015°04'0 0.0
2017-Oct-16 11:29N 68°55' E 015°04'0 0.0
2017-Oct-16 10:59N 68°55' E 015°04'0 0.0
2017-Oct-16 10:29N 68°55' E 015°04'0 0.0
2017-Oct-16 09:59N 68°55' E 015°04'0 0.0
2017-Oct-16 09:29N 68°55' E 015°04'0 0.0
2017-Oct-16 08:59N 68°55' E 015°04'0 0.0
2017-Oct-16 08:29N 68°55' E 015°04'0 0.0
2017-Oct-16 07:59N 68°55' E 015°04'0 0.0
2017-Oct-16 07:26N 68°55' E 015°04'0 0.0
2017-Oct-16 06:59N 68°55' E 015°04'0 0.0
2017-Oct-16 06:29N 68°55' E 015°04'0 0.0
2017-Oct-16 05:59N 68°55' E 015°04'0 0.0
2017-Oct-16 05:26N 68°55' E 015°04'0 0.0
2017-Oct-16 04:56N 68°55' E 015°04'0 0.0
2017-Oct-16 04:29N 68°55' E 015°04'0 0.0
2017-Oct-16 03:59N 68°55' E 015°04'0 0.0
2017-Oct-16 03:29N 68°55' E 015°04'0 0.0
2017-Oct-16 02:59N 68°55' E 015°04'0 0.0
2017-Oct-16 02:26N 68°55' E 015°04'0 0.0
2017-Oct-16 01:59N 68°55' E 015°04'0 0.0
2017-Oct-16 01:29N 68°55' E 015°04'0 0.0
2017-Oct-16 00:59N 68°55' E 015°04'0 0.0
2017-Oct-16 00:29N 68°55' E 015°04'0 0.0
2017-Oct-15 23:56N 68°55' E 015°04'0 0.0
2017-Oct-15 23:29N 68°55' E 015°04'0 0.0
2017-Oct-15 22:59N 68°55' E 015°04'0 0.0
2017-Oct-15 22:29N 68°55' E 015°04'0 0.0
2017-Oct-15 21:59N 68°55' E 015°04'0 0.0
2017-Oct-15 21:29N 68°55' E 015°04'0 0.0
2017-Oct-15 20:59N 68°55' E 015°04'0 0.0
2017-Oct-15 20:26N 68°55' E 015°04'0 0.0
2017-Oct-15 19:56N 68°55' E 015°04'0 0.0
2017-Oct-15 19:29N 68°55' E 015°04'0 0.0
2017-Oct-15 18:59N 68°55' E 015°04'0 0.0
2017-Oct-15 18:29N 68°55' E 015°04'0 0.0
2017-Oct-15 17:59N 68°55' E 015°04'0 0.0
2017-Oct-15 17:29N 68°55' E 015°04'0 0.0
2017-Oct-15 16:59N 68°55' E 015°04'0 0.0
2017-Oct-15 16:26N 68°55' E 015°04'0 0.0
2017-Oct-15 15:59N 68°55' E 015°04'0 0.0
2017-Oct-15 15:29N 68°55' E 015°04'0 0.0
2017-Oct-15 14:56N 68°55' E 015°04'0 0.0
2017-Oct-15 13:59N 68°55' E 015°04'0 0.0
2017-Oct-15 13:29N 68°55' E 015°04'0 0.0
2017-Oct-15 12:53N 68°55' E 015°04'0 0.0
2017-Oct-15 12:29N 68°55' E 015°04'0 0.0
2017-Oct-15 11:59N 68°55' E 015°04'0 0.0
2017-Oct-15 11:29N 68°55' E 015°04'0 0.0
2017-Oct-15 10:59N 68°55' E 015°04'0 0.0
2017-Oct-15 10:29N 68°55' E 015°04'0 0.0
2017-Oct-15 09:59N 68°55' E 015°04'0 0.0
2017-Oct-15 09:29N 68°55' E 015°04'0 0.0
2017-Oct-15 08:56N 68°55' E 015°04'0 0.0
2017-Oct-15 08:29N 68°55' E 015°04'0 0.0
2017-Oct-15 07:59N 68°55' E 015°04'0 0.0
2017-Oct-15 07:29N 68°55' E 015°04'0 0.0
2017-Oct-15 06:59N 68°55' E 015°04'0 0.0
2017-Oct-15 06:29N 68°55' E 015°04'0 0.0
2017-Oct-15 05:59N 68°55' E 015°04'0 0.0
2017-Oct-15 05:29N 68°55' E 015°04'0 0.0
2017-Oct-15 04:59N 68°55' E 015°04'0 0.0
2017-Oct-15 04:29N 68°55' E 015°04'0 0.0
2017-Oct-15 03:59N 68°55' E 015°04'0 0.0
2017-Oct-15 03:29N 68°55' E 015°04'0 0.0
2017-Oct-15 02:59N 68°55' E 015°04'0 0.0
2017-Oct-15 02:26N 68°55' E 015°04'0 0.0
2017-Oct-15 01:59N 68°55' E 015°04'0 0.0
2017-Oct-15 01:29N 68°55' E 015°04'0 0.0
2017-Oct-15 00:59N 68°55' E 015°04'0 0.0
2017-Oct-15 00:29N 68°55' E 015°04'0 0.0
2017-Oct-14 23:59N 68°55' E 015°04'0 0.0
2017-Oct-14 23:29N 68°55' E 015°04'0 0.0
2017-Oct-14 22:59N 68°55' E 015°04'0 0.0
2017-Oct-14 22:29N 68°55' E 015°04'0 0.0
2017-Oct-14 21:56N 68°55' E 015°04'0 0.0
2017-Oct-14 21:29N 68°55' E 015°04'0 0.0
2017-Oct-14 20:59N 68°55' E 015°04'0 0.0
2017-Oct-14 20:29N 68°55' E 015°04'0 0.0
2017-Oct-14 19:59N 68°55' E 015°04'0 0.0
2017-Oct-14 19:29N 68°55' E 015°04'0 0.0
2017-Oct-14 18:59N 68°55' E 015°04'0 0.0
2017-Oct-14 18:29N 68°55' E 015°04'0 0.0
2017-Oct-14 17:59N 68°55' E 015°04'0 0.0
2017-Oct-14 17:29N 68°55' E 015°04'0 0.0
2017-Oct-14 16:59N 68°55' E 015°04'0 0.0
2017-Oct-14 16:29N 68°55' E 015°04'0 0.0
2017-Oct-14 15:59N 68°55' E 015°04'0 0.0
2017-Oct-14 15:29N 68°55' E 015°04'0 0.0
2017-Oct-14 14:59N 68°55' E 015°04'0 0.0
2017-Oct-14 14:29N 68°55' E 015°04'0 0.0
2017-Oct-14 13:59N 68°55' E 015°04'0 0.0
2017-Oct-14 13:29N 68°55' E 015°04'0 0.0
2017-Oct-14 12:59N 68°55' E 015°04'0 0.0
2017-Oct-14 12:29N 68°55' E 015°04'0 0.0
2017-Oct-14 11:59N 68°55' E 015°04'0 0.0
2017-Oct-14 11:29N 68°55' E 015°04'0 0.0
2017-Oct-14 10:59N 68°55' E 015°04'0 0.0
2017-Oct-14 10:29N 68°55' E 015°04'0 0.0
2017-Oct-14 09:59N 68°55' E 015°04'0 0.0
2017-Oct-14 09:29N 68°55' E 015°04'0 0.0
2017-Oct-14 08:59N 68°55' E 015°04'0 0.0
2017-Oct-14 08:29N 68°55' E 015°04'0 0.0
2017-Oct-14 07:59N 68°55' E 015°04'0 0.0
2017-Oct-14 07:29N 68°55' E 015°04'0 0.0
2017-Oct-14 06:59N 68°55' E 015°04'0 0.0
2017-Oct-14 06:29N 68°55' E 015°04'0 0.0
2017-Oct-14 05:59N 68°55' E 015°04'0 0.0
2017-Oct-14 05:26N 68°55' E 015°04'0 0.0
2017-Oct-14 04:59N 68°55' E 015°04'0 0.0
2017-Oct-14 04:29N 68°55' E 015°04'0 0.0
2017-Oct-14 03:53N 68°55' E 015°04'0 0.0
2017-Oct-14 03:29N 68°55' E 015°04'0 0.0
2017-Oct-14 02:59N 68°55' E 015°04'0 0.0
2017-Oct-14 02:26N 68°55' E 015°04'0 0.0
2017-Oct-14 01:56N 68°55' E 015°04'0 0.0
2017-Oct-14 01:26N 68°55' E 015°04'0 0.0
2017-Oct-14 00:59N 68°55' E 015°04'0 0.0
2017-Oct-14 00:26N 68°55' E 015°04'0 0.0
2017-Oct-13 23:56N 68°55' E 015°04'0 0.0
2017-Oct-13 23:29N 68°55' E 015°04'0 0.0
2017-Oct-13 22:59N 68°55' E 015°04'0 0.0
2017-Oct-13 22:29N 68°55' E 015°04'0 0.0
2017-Oct-13 21:59N 68°55' E 015°04'0 0.0
2017-Oct-13 21:29N 68°55' E 015°04'0 0.0
2017-Oct-13 20:59N 68°55' E 015°04'0 0.0
2017-Oct-13 20:29N 68°55' E 015°04'0 0.0
2017-Oct-13 19:59N 68°55' E 015°04'0 0.0
2017-Oct-13 19:29N 68°55' E 015°04'0 0.0
2017-Oct-13 18:59N 68°55' E 015°04'0 0.0
2017-Oct-13 18:26N 68°55' E 015°04'0 0.0
2017-Oct-13 17:59N 68°55' E 015°04'0 0.0
2017-Oct-13 17:29N 68°55' E 015°04'0 0.0
2017-Oct-13 16:58N 68°55' E 015°04'0 0.3
2017-Oct-13 16:23N 68°55' E 015°04'3 6.8
2017-Oct-13 16:00N 68°57' E 014°59'4 8.6
2017-Oct-13 15:30N 69°01' E 014°59'4 8.2
2017-Oct-13 15:00N 69°05' E 015°02'4 7.9
2017-Oct-13 14:30N 69°08' E 015°07'1 1.1
2017-Oct-13 14:00N 69°09' E 015°09'1 1.4
2017-Oct-13 13:29N 69°08' E 015°09'1 1.2
2017-Oct-13 13:00N 69°08' E 015°11'0 0.9
2017-Oct-13 12:30N 69°08' E 015°12'1 1.2
2017-Oct-13 11:59N 69°07' E 015°14'1 1.2
2017-Oct-13 11:30N 69°07' E 015°15'0 0.8
2017-Oct-13 11:00N 69°07' E 015°14'1 1.4
2017-Oct-13 10:30N 69°07' E 015°12'1 1.4
2017-Oct-13 10:00N 69°07' E 015°10'1 1.2
2017-Oct-13 09:30N 69°08' E 015°09'1 1.4
2017-Oct-13 09:00N 69°08' E 015°08'1 1.0
2017-Oct-13 08:30N 69°09' E 015°07'1 1.3
2017-Oct-13 08:00N 69°08' E 015°07'13 0.9
2017-Oct-12 16:22N 68°55' E 015°04'0 0.0
2017-Oct-12 15:58N 68°55' E 015°04'0 0.0
2017-Oct-12 15:28N 68°55' E 015°04'0 0.0
2017-Oct-12 14:58N 68°55' E 015°04'0 0.0
2017-Oct-12 14:28N 68°55' E 015°04'0 0.0
2017-Oct-12 13:58N 68°55' E 015°04'0 0.0
2017-Oct-12 13:28N 68°55' E 015°04'0 0.0
2017-Oct-12 12:58N 68°55' E 015°04'0 0.0
2017-Oct-12 12:28N 68°55' E 015°04'0 0.0
2017-Oct-12 11:55N 68°55' E 015°04'0 0.0
2017-Oct-12 11:28N 68°55' E 015°04'0 0.0
2017-Oct-12 10:58N 68°55' E 015°04'0 0.0
2017-Oct-12 10:30N 68°55' E 015°04'0 0.3
2017-Oct-12 09:55N 68°55' E 015°04'0 0.3
2017-Oct-12 09:29N 68°55' E 015°04'4 7.7
2017-Oct-12 08:59N 68°58' E 014°59'4 8.0
2017-Oct-12 08:30N 69°02' E 014°60'4 7.1
2017-Oct-12 08:00N 69°05' E 015°03'3 7.0
2017-Oct-12 07:30N 69°08' E 015°07'4 7.0
2017-Oct-12 07:01N 69°12' E 015°11'3 7.0
2017-Oct-12 06:30N 69°15' E 015°15'3 6.5
2017-Oct-12 06:00N 69°18' E 015°17'0 0.9
2017-Oct-12 05:29N 69°19' E 015°17'1 1.2
2017-Oct-12 05:00N 69°19' E 015°16'0 0.8
2017-Oct-12 04:29N 69°19' E 015°15'1 1.1
2017-Oct-12 04:00N 69°18' E 015°16'1 1.0
2017-Oct-12 03:30N 69°18' E 015°14'1 1.2
2017-Oct-12 03:00N 69°19' E 015°13'1 1.0
2017-Oct-12 02:29N 69°18' E 015°13'1 1.2
2017-Oct-12 02:00N 69°17' E 015°13'1 1.1
2017-Oct-12 01:30N 69°18' E 015°11'0 0.8
2017-Oct-12 00:59N 69°18' E 015°11'1 1.1
2017-Oct-12 00:30N 69°17' E 015°11'1 1.0
2017-Oct-12 00:00N 69°17' E 015°11'0 0.9
2017-Oct-11 23:30N 69°17' E 015°10'1 1.2
2017-Oct-11 23:00N 69°18' E 015°08'1 1.1
2017-Oct-11 22:30N 69°17' E 015°08'1 1.3
2017-Oct-11 21:59N 69°16' E 015°08'1 2.3
2017-Oct-11 21:30N 69°15' E 015°08'1 2.5
2017-Oct-11 21:00N 69°15' E 015°12'1 1.1
2017-Oct-11 20:30N 69°16' E 015°13'1 1.0
2017-Oct-11 20:00N 69°16' E 015°13'0 0.9
2017-Oct-11 19:30N 69°17' E 015°14'0 0.9
2017-Oct-11 19:00N 69°17' E 015°14'0 0.9
2017-Oct-11 18:29N 69°17' E 015°15'1 1.7
2017-Oct-11 18:00N 69°18' E 015°16'0 1.0
2017-Oct-11 17:30N 69°18' E 015°15'1 2.1
2017-Oct-11 17:00N 69°17' E 015°13'10 0.6
2017-Oct-11 00:00N 69°08' E 015°07'3 6.4
2017-Oct-10 23:30N 69°05' E 015°04'4 8.7
2017-Oct-10 22:59N 69°01' E 014°59'5 8.9
2017-Oct-10 22:29N 68°56' E 014°60'2 5.2
2017-Oct-10 22:00N 68°55' E 015°04'0 0.0
2017-Oct-10 21:30N 68°55' E 015°04'0 0.0
2017-Oct-10 21:00N 68°55' E 015°04'0 0.0
2017-Oct-10 20:30N 68°55' E 015°04'0 0.0
2017-Oct-10 20:00N 68°55' E 015°04'0 0.0
2017-Oct-10 19:30N 68°55' E 015°04'0 0.0
2017-Oct-10 19:00N 68°55' E 015°04'0 0.0
2017-Oct-10 18:30N 68°55' E 015°04'0 0.0
2017-Oct-10 18:00N 68°55' E 015°04'0 0.0
2017-Oct-10 17:30N 68°55' E 015°04'0 0.0
2017-Oct-10 17:00N 68°55' E 015°04'0 0.0
2017-Oct-10 16:30N 68°55' E 015°04'0 0.0
2017-Oct-10 16:00N 68°55' E 015°04'0 0.0
2017-Oct-10 15:30N 68°55' E 015°04'0 0.0
2017-Oct-10 15:00N 68°55' E 015°04'0 0.0
2017-Oct-10 14:00N 68°55' E 015°04'0 0.0
2017-Oct-10 13:30N 68°55' E 015°04'0 0.0
2017-Oct-10 12:57N 68°55' E 015°04'0 0.0
2017-Oct-10 12:30N 68°55' E 015°04'0 0.0
2017-Oct-10 12:00N 68°55' E 015°04'0 0.0
2017-Oct-10 11:30N 68°55' E 015°04'0 0.0
2017-Oct-10 11:00N 68°55' E 015°04'0 0.2
2017-Oct-10 10:21N 68°55' E 015°04'3 7.0
2017-Oct-10 09:57N 68°57' E 014°59'4 8.7
2017-Oct-10 09:29N 69°01' E 014°59'4 9.0
2017-Oct-10 09:00N 69°05' E 015°04'4 8.6
2017-Oct-10 08:30N 69°09' E 015°10'4 8.1
2017-Oct-10 08:00N 69°12' E 015°15'4 7.8
2017-Oct-10 07:30N 69°16' E 015°20'1 1.3
2017-Oct-10 07:00N 69°16' E 015°22'1 1.6
2017-Oct-10 06:30N 69°15' E 015°23'1 1.1
2017-Oct-10 06:01N 69°16' E 015°22'1 2.6
2017-Oct-10 05:30N 69°17' E 015°19'1 1.2
2017-Oct-10 05:00N 69°17' E 015°18'1 1.4
2017-Oct-10 04:30N 69°17' E 015°17'1 1.1
2017-Oct-10 04:00N 69°18' E 015°15'0 1.0
2017-Oct-10 03:30N 69°18' E 015°14'0 0.8
2017-Oct-10 03:00N 69°18' E 015°13'0 0.9
2017-Oct-10 02:29N 69°18' E 015°12'1 1.1
2017-Oct-10 02:00N 69°18' E 015°12'1 1.3
2017-Oct-10 01:30N 69°17' E 015°13'1 1.3
2017-Oct-10 01:00N 69°16' E 015°13'1 1.3
2017-Oct-10 00:29N 69°16' E 015°14'1 1.3
2017-Oct-10 00:00N 69°15' E 015°15'1 1.3
2017-Oct-09 23:30N 69°15' E 015°16'1 1.3
2017-Oct-09 23:00N 69°14' E 015°16'1 1.2
2017-Oct-09 22:29N 69°13' E 015°17'1 2.4
2017-Oct-09 21:58N 69°13' E 015°20'0 0.6
2017-Oct-09 21:28N 69°13' E 015°21'0 0.6
2017-Oct-09 20:58N 69°13' E 015°21'0 0.6
2017-Oct-09 20:28N 69°14' E 015°21'0 0.6
2017-Oct-09 19:58N 69°14' E 015°22'0 0.6
2017-Oct-09 19:28N 69°14' E 015°22'0 0.6
2017-Oct-09 18:58N 69°14' E 015°23'0 0.8
2017-Oct-09 18:29N 69°15' E 015°24'2 4.2
2017-Oct-09 18:00N 69°16' E 015°20'3 5.7
2017-Oct-09 17:30N 69°18' E 015°13'2 3.7
2017-Oct-09 17:00N 69°16' E 015°13'3 5.3
2017-Oct-09 16:30N 69°14' E 015°16'1 2.3
2017-Oct-09 16:00N 69°14' E 015°19'0 0.5
2017-Oct-09 15:30N 69°13' E 015°19'0 0.6
2017-Oct-09 15:00N 69°13' E 015°18'2 3.5
2017-Oct-09 14:30N 69°15' E 015°20'1 1.2
2017-Oct-09 14:00N 69°16' E 015°20'1 1.4
2017-Oct-09 13:29N 69°16' E 015°19'1 1.3
2017-Oct-09 13:00N 69°17' E 015°18'1 1.1
2017-Oct-09 12:30N 69°17' E 015°17'1 1.4
2017-Oct-09 12:00N 69°16' E 015°17'1 1.3
2017-Oct-09 11:30N 69°16' E 015°18'1 1.4
2017-Oct-09 11:00N 69°15' E 015°19'0 0.9
2017-Oct-09 10:30N 69°15' E 015°18'1 1.4
2017-Oct-09 10:00N 69°15' E 015°17'1 1.4
2017-Oct-09 09:30N 69°16' E 015°16'1 1.3
2017-Oct-09 09:00N 69°17' E 015°15'1 1.0
2017-Oct-09 08:29N 69°16' E 015°14'1 1.4
2017-Oct-09 08:00N 69°15' E 015°15'1 1.4
2017-Oct-09 07:30N 69°15' E 015°16'1 1.4
2017-Oct-09 07:00N 69°14' E 015°17'1 1.3
2017-Oct-09 06:30N 69°14' E 015°17'1 2.4
2017-Oct-09 05:58N 69°13' E 015°20'0 0.8
2017-Oct-09 05:30N 69°13' E 015°20'1 1.0
2017-Oct-09 04:58N 69°13' E 015°19'0 0.9
2017-Oct-09 04:28N 69°14' E 015°19'0 0.9
2017-Oct-09 04:00N 69°14' E 015°20'0 0.9
2017-Oct-09 03:30N 69°15' E 015°20'0 0.8
2017-Oct-09 03:00N 69°15' E 015°20'2 3.6
2017-Oct-09 02:30N 69°16' E 015°17'1 2.9
2017-Oct-09 02:00N 69°15' E 015°17'1 2.4
2017-Oct-09 01:29N 69°16' E 015°14'3 5.4
2017-Oct-09 00:59N 69°13' E 015°17'4 8.4
2017-Oct-09 00:30N 69°10' E 015°12'5 9.1
2017-Oct-09 00:00N 69°06' E 015°05'4 8.7
2017-Oct-08 23:30N 69°02' E 014°60'4 8.4
2017-Oct-08 22:59N 68°58' E 014°59'4 7.3
2017-Oct-08 22:29N 68°55' E 015°04'0 0.0
2017-Oct-08 21:59N 68°55' E 015°04'0 0.0
2017-Oct-08 21:29N 68°55' E 015°04'0 0.0
2017-Oct-08 20:59N 68°55' E 015°04'0 0.0
2017-Oct-08 20:29N 68°55' E 015°04'0 0.0
2017-Oct-08 19:59N 68°55' E 015°04'0 0.0
2017-Oct-08 19:29N 68°55' E 015°04'0 0.0
2017-Oct-08 18:59N 68°55' E 015°04'0 0.3
2017-Oct-08 18:28N 68°55' E 015°04'0 0.0
2017-Oct-08 17:55N 68°55' E 015°04'3 6.9
2017-Oct-08 17:30N 68°57' E 014°59'4 8.9
2017-Oct-08 17:00N 69°01' E 014°57'4 8.6
2017-Oct-08 16:30N 69°06' E 014°55'3 6.0
2017-Oct-08 16:00N 69°09' E 014°55'1 1.3
2017-Oct-08 15:30N 69°09' E 014°53'1 1.3
2017-Oct-08 15:00N 69°09' E 014°51'0 0.8
2017-Oct-08 14:30N 69°10' E 014°51'1 1.4
2017-Oct-08 14:00N 69°09' E 014°53'0 1.0
2017-Oct-08 13:30N 69°10' E 014°54'1 1.4
2017-Oct-08 13:00N 69°10' E 014°52'1 1.4
2017-Oct-08 12:30N 69°10' E 014°50'1 1.3
2017-Oct-08 12:00N 69°10' E 014°48'1 1.3
2017-Oct-08 11:30N 69°11' E 014°47'1 1.3
2017-Oct-08 11:00N 69°11' E 014°46'1 1.3
2017-Oct-08 10:30N 69°12' E 014°45'3 5.1
2017-Oct-08 10:00N 69°14' E 014°45'3 5.4
2017-Oct-08 09:30N 69°17' E 014°45'0 0.7
2017-Oct-08 08:59N 69°17' E 014°44'0 0.9
2017-Oct-08 08:30N 69°17' E 014°42'1 1.1
2017-Oct-08 08:00N 69°16' E 014°41'1 1.3
2017-Oct-08 07:30N 69°16' E 014°39'0 0.8
2017-Oct-08 07:01N 69°16' E 014°38'0 0.3
2017-Oct-08 06:30N 69°16' E 014°39'0 0.5
2017-Oct-08 06:00N 69°16' E 014°39'1 1.0
2017-Oct-08 05:30N 69°16' E 014°37'0 0.4
2017-Oct-08 05:00N 69°16' E 014°38'1 1.4
2017-Oct-08 04:30N 69°16' E 014°36'0 0.8
2017-Oct-08 04:00N 69°16' E 014°37'0 0.8
2017-Oct-08 03:30N 69°15' E 014°38'1 1.1
2017-Oct-08 02:59N 69°16' E 014°39'1 1.1
2017-Oct-08 02:30N 69°16' E 014°40'1 1.3
2017-Oct-08 01:59N 69°17' E 014°41'1 1.1
2017-Oct-08 01:30N 69°17' E 014°43'0 1.0
2017-Oct-08 01:00N 69°17' E 014°43'3 6.2
2017-Oct-08 00:29N 69°16' E 014°36'3 6.5
2017-Oct-08 00:00N 69°13' E 014°41'3 6.1
2017-Oct-07 23:29N 69°11' E 014°47'2 5.0
2017-Oct-07 23:00N 69°10' E 014°53'1 1.6
2017-Oct-07 22:30N 69°09' E 014°51'3 5.2
2017-Oct-07 22:01N 69°07' E 014°54'4 8.4
2017-Oct-07 21:30N 69°03' E 014°56'4 8.4
2017-Oct-07 21:00N 68°58' E 014°58'4 8.0
2017-Oct-07 20:29N 68°55' E 015°04'0 0.2
2017-Oct-07 20:00N 68°55' E 015°04'0 0.4
2017-Oct-07 19:29N 68°55' E 015°04'0 0.0
2017-Oct-07 18:59N 68°55' E 015°04'0 0.0
2017-Oct-07 18:29N 68°55' E 015°04'0 0.0
2017-Oct-07 17:59N 68°55' E 015°04'0 0.0
2017-Oct-07 17:29N 68°55' E 015°04'0 0.0
2017-Oct-07 16:59N 68°55' E 015°04'  

Dump ship's entire track history